Time;durP1;ratioP1;P1;durP2;ratioP2;P2;SDS_P1;SDS_P2;PMS_P1;PMS_P2;Temp;Humidity;BMP_temperature;BMP_pressure;BME280_temperature;BME280_humidity;BME280_pressure;Samples;Min_cycle;Max_cycle;Signal;HPM_P1;HPM_P2
2021/05/28 00:00:39;;;;;;;3.22;2.90;;;;;;;23.92;55.49;101313.66;1774538;79;21072;-48
2021/05/28 00:03:06;;;;;;;4.35;3.12;;;;;;;23.91;55.38;101317.72;1769703;79;21116;-49
2021/05/28 00:05:33;;;;;;;3.15;2.77;;;;;;;23.90;55.33;101320.89;1774637;79;21569;-50
2021/05/28 00:08:00;;;;;;;3.92;3.20;;;;;;;23.89;55.37;101322.30;1773735;79;21076;-47
2021/05/28 00:10:27;;;;;;;3.12;2.90;;;;;;;23.88;55.19;101322.80;1768688;80;21140;-49
2021/05/28 00:12:54;;;;;;;3.90;2.72;;;;;;;23.90;55.09;101320.89;1771948;79;21016;-47
2021/05/28 00:15:20;;;;;;;4.72;3.10;;;;;;;23.91;55.06;101317.72;1770962;80;21059;-50
2021/05/28 00:17:48;;;;;;;3.92;3.08;;;;;;;23.90;55.06;101316.90;1788256;79;21036;-48
2021/05/28 00:20:16;;;;;;;3.85;3.00;;;;;;;23.92;55.08;101315.45;1778693;79;21045;-47
2021/05/28 00:22:43;;;;;;;3.60;2.92;;;;;;;23.93;55.27;101315.34;1774622;79;21052;-47
2021/05/28 00:25:12;;;;;;;4.65;3.40;;;;;;;23.93;55.24;101312.69;1772205;79;21102;-53
2021/05/28 00:27:39;;;;;;;5.83;3.35;;;;;;;23.94;55.39;101317.06;1777931;79;21075;-47
2021/05/28 00:30:08;;;;;;;3.55;2.60;;;;;;;23.95;55.28;101313.43;1772223;79;21043;-48
2021/05/28 00:32:35;;;;;;;3.60;2.95;;;;;;;23.95;54.97;101308.11;1772344;79;21052;-47
2021/05/28 00:35:01;;;;;;;3.52;2.92;;;;;;;23.96;54.93;101306.31;1778783;80;21121;-49
2021/05/28 00:37:28;;;;;;;4.17;2.90;;;;;;;23.97;54.99;101308.00;1788344;79;21123;-47
2021/05/28 00:39:54;;;;;;;3.12;2.80;;;;;;;23.97;55.16;101306.67;1769043;80;21081;-47
2021/05/28 00:42:21;;;;;;;3.40;2.90;;;;;;;23.96;55.11;101303.66;1769015;80;21036;-49
2021/05/28 00:44:48;;;;;;;3.37;3.08;;;;;;;23.96;55.05;101299.20;1766617;80;21013;-46
2021/05/28 00:47:16;;;;;;;4.30;3.27;;;;;;;23.95;55.02;101296.62;1763685;79;21051;-47
2021/05/28 00:49:44;;;;;;;3.58;3.22;;;;;;;23.95;55.01;101302.80;1766907;79;21717;-47
2021/05/28 00:52:13;;;;;;;5.17;2.80;;;;;;;23.90;55.21;101295.63;1770966;78;21044;-47
2021/05/28 00:54:41;;;;;;;5.80;3.62;;;;;;;23.89;55.25;101299.70;1770199;79;21083;-47
2021/05/28 00:57:08;;;;;;;4.55;2.58;;;;;;;23.87;55.12;101291.84;1753802;79;21065;-48
2021/05/28 00:59:38;;;;;;;5.78;3.47;;;;;;;23.88;55.01;101287.38;1700585;83;21045;-48
2021/05/28 01:02:05;;;;;;;3.77;3.00;;;;;;;23.88;54.88;101285.59;1663988;85;21065;-50
2021/05/28 01:04:32;;;;;;;7.15;3.33;;;;;;;23.94;54.70;101277.19;1703813;83;21105;-46
2021/05/28 01:07:00;;;;;;;4.80;3.15;;;;;;;23.93;54.69;101280.78;1657692;85;21128;-46
2021/05/28 01:09:27;;;;;;;4.28;3.37;;;;;;;23.95;54.64;101281.53;1658544;85;21109;-49
2021/05/28 01:11:53;;;;;;;5.67;3.40;;;;;;;23.93;54.57;101283.45;1708141;82;21099;-47
2021/05/28 01:14:20;;;;;;;3.65;3.25;;;;;;;23.91;54.92;101282.70;1720517;82;21069;-52
2021/05/28 01:16:47;;;;;;;3.22;2.95;;;;;;;23.89;55.20;101276.64;1678145;83;21096;-50
2021/05/28 01:19:15;;;;;;;5.58;3.27;;;;;;;23.86;55.46;101272.88;1720896;82;21654;-48
2021/05/28 01:21:43;;;;;;;6.17;3.50;;;;;;;23.85;55.66;101274.29;1727213;82;21123;-51
2021/05/28 01:24:11;;;;;;;4.12;3.67;;;;;;;23.81;55.82;101267.02;1730137;82;21051;-49
2021/05/28 01:26:38;;;;;;;3.40;3.10;;;;;;;23.80;55.88;101266.63;1729359;82;21576;-52
2021/05/28 01:29:04;;;;;;;4.58;3.25;;;;;;;23.80;55.97;101266.63;1731562;81;21074;-48
2021/05/28 01:31:33;;;;;;;3.60;3.30;;;;;;;23.77;56.04;101258.88;1658134;84;21044;-49
2021/05/28 01:34:00;;;;;;;6.05;3.58;;;;;;;23.79;56.01;101254.31;1714576;82;21112;-48
2021/05/28 01:36:26;;;;;;;4.80;3.83;;;;;;;23.81;56.04;101255.05;1716828;82;21123;-49
2021/05/28 01:38:53;;;;;;;3.83;3.45;;;;;;;23.79;56.01;101250.33;1726062;81;21008;-49
2021/05/28 01:41:19;;;;;;;4.22;3.20;;;;;;;23.77;56.04;101251.38;1733706;82;21055;-51
2021/05/28 01:43:46;;;;;;;5.85;3.50;;;;;;;23.75;56.12;101255.48;1739859;82;21044;-49
2021/05/28 01:46:14;;;;;;;5.53;3.62;;;;;;;23.73;56.35;101250.75;1735440;82;21433;-46
2021/05/28 01:48:42;;;;;;;3.95;3.55;;;;;;;23.70;56.53;101248.28;1722232;81;21067;-50
2021/05/28 01:51:08;;;;;;;4.28;3.47;;;;;;;23.69;56.71;101247.93;1709284;82;21059;-52
2021/05/28 01:53:35;;;;;;;4.05;3.65;;;;;;;23.69;56.77;101251.91;1726361;81;21638;-46
2021/05/28 01:56:02;;;;;;;4.28;3.67;;;;;;;23.68;56.82;101246.71;1723152;81;21052;-47
2021/05/28 01:58:29;;;;;;;4.25;3.58;;;;;;;23.68;56.81;101243.55;1763097;78;21589;-47
2021/05/28 02:00:56;;;;;;;4.20;3.80;;;;;;;23.70;56.69;101244.30;1778177;79;21045;-49
2021/05/28 02:03:23;;;;;;;3.87;3.58;;;;;;;23.71;56.57;101244.69;1774276;80;21072;-52
2021/05/28 02:05:51;;;;;;;3.95;3.58;;;;;;;23.72;56.48;101249.03;1768723;79;21659;-49
2021/05/28 02:08:18;;;;;;;4.97;3.72;;;;;;;23.72;56.42;101249.03;1759062;79;21043;-46
2021/05/28 02:10:45;;;;;;;5.33;3.75;;;;;;;23.71;56.44;101246.02;1770744;79;21029;-47
2021/05/28 02:13:12;;;;;;;5.45;3.17;;;;;;;23.71;56.56;101247.81;1770247;79;21012;-47
2021/05/28 02:15:39;;;;;;;3.90;3.50;;;;;;;23.70;56.70;101246.13;1780342;79;21135;-47
2021/05/28 02:18:06;;;;;;;3.72;3.35;;;;;;;23.69;56.88;101248.39;1769391;79;21056;-50
2021/05/28 02:20:34;;;;;;;6.05;3.95;;;;;;;23.69;56.90;101242.61;1790080;79;21036;-47
2021/05/28 02:23:01;;;;;;;6.60;3.30;;;;;;;23.70;56.95;101249.61;1770643;79;21051;-47
2021/05/28 02:25:29;;;;;;;3.60;3.30;;;;;;;23.70;56.89;101248.28;1781600;80;21071;-51
2021/05/28 02:27:56;;;;;;;4.30;3.67;;;;;;;23.70;56.77;101242.14;1780577;79;21056;-49
2021/05/28 02:30:23;;;;;;;5.30;3.27;;;;;;;23.71;56.64;101250.00;1766793;79;21056;-52
2021/05/28 02:32:50;;;;;;;4.62;3.50;;;;;;;23.70;56.64;101244.30;1777019;79;21060;-47
2021/05/28 02:35:17;;;;;;;5.28;3.30;;;;;;;23.70;56.53;101244.30;1781705;79;21091;-48
2021/05/28 02:37:44;;;;;;;3.58;2.98;;;;;;;23.69;56.41;101242.61;1778683;79;21548;-47
2021/05/28 02:40:13;;;;;;;4.42;3.45;;;;;;;23.67;56.39;101239.21;1775607;79;21044;-49
2021/05/28 02:42:41;;;;;;;7.55;3.87;;;;;;;23.65;56.39;101243.78;1767559;79;21079;-49
2021/05/28 02:45:08;;;;;;;4.25;3.52;;;;;;;23.64;56.37;101239.41;1770676;79;21563;-48
2021/05/28 02:47:35;;;;;;;4.50;3.40;;;;;;;23.63;56.36;101233.73;1780007;79;20993;-51
2021/05/28 02:50:02;;;;;;;5.37;3.52;;;;;;;23.62;56.50;101225.38;1773869;79;21061;-48
2021/05/28 02:52:29;;;;;;;7.87;3.33;;;;;;;23.61;56.82;101225.48;1764244;80;21586;-47
2021/05/28 02:54:56;;;;;;;4.47;4.00;;;;;;;23.59;57.02;101226.08;1762522;80;21016;-49
2021/05/28 02:57:22;;;;;;;9.05;4.05;;;;;;;23.59;57.13;101225.60;1772787;80;21385;-52
2021/05/28 02:59:49;;;;;;;5.37;3.17;;;;;;;23.60;57.05;101223.30;1773045;79;21536;-52
2021/05/28 03:02:18;;;;;;;6.25;2.85;;;;;;;23.64;56.85;101227.95;1766758;80;21029;-48
2021/05/28 03:04:45;;;;;;;5.28;3.25;;;;;;;23.65;56.65;101222.52;1773980;79;21537;-47
2021/05/28 03:07:11;;;;;;;4.00;3.55;;;;;;;23.68;56.38;101214.33;1778653;79;21075;-49
2021/05/28 03:09:39;;;;;;;3.77;3.37;;;;;;;23.68;56.12;101213.00;1762676;79;21552;-48
2021/05/28 03:12:08;;;;;;;6.45;3.90;;;;;;;23.69;56.22;101221.83;1763988;79;21548;-49
2021/05/28 03:14:36;;;;;;;3.90;3.50;;;;;;;23.72;56.26;101220.30;1768880;80;21592;-49
2021/05/28 03:17:02;;;;;;;5.55;3.70;;;;;;;23.73;56.20;101220.19;1767700;79;21052;-47
2021/05/28 03:19:39;;;;;;;3.75;3.25;;;;;;;23.74;56.20;101221.88;1764544;80;21083;-51
2021/05/28 03:24:43;;;;;;;3.50;3.20;;;;;;;23.79;55.97;101226.87;1777259;79;21060;-47
2021/05/28 03:27:11;;;;;;;5.10;3.05;;;;;;;23.81;55.71;101231.14;1774626;79;21080;-47
2021/05/28 03:29:38;;;;;;;3.75;2.95;;;;;;;23.81;55.69;101224.97;1724404;83;21081;-49
2021/05/28 03:32:05;;;;;;;3.42;3.08;;;;;;;23.84;55.86;101228.28;1777580;79;21575;-51
2021/05/28 03:34:32;;;;;;;6.28;3.70;;;;;;;24.00;55.70;101234.23;1773134;79;21064;-48
2021/05/28 03:36:59;;;;;;;3.67;3.22;;;;;;;24.25;55.16;101234.21;1784359;79;21047;-46
2021/05/28 03:39:26;;;;;;;3.85;3.12;;;;;;;24.64;54.31;101245.64;1771629;79;21064;-47
2021/05/28 03:41:53;;;;;;;3.45;3.15;;;;;;;25.10;53.20;101247.15;1789191;79;21568;-46
2021/05/28 03:44:20;;;;;;;3.95;3.20;;;;;;;25.60;52.21;101249.06;1777822;79;21049;-48
2021/05/28 03:46:47;;;;;;;4.40;3.62;;;;;;;26.16;51.01;101246.50;1774341;79;21032;-48
2021/05/28 03:49:14;;;;;;;7.83;3.83;;;;;;;26.73;49.67;101244.55;1772036;79;21084;-46
2021/05/28 03:51:41;;;;;;;5.78;3.35;;;;;;;27.30;48.00;101239.77;1782531;79;21098;-49
2021/05/28 03:54:08;;;;;;;4.58;3.12;;;;;;;27.79;46.82;101240.97;1771920;79;21139;-47
2021/05/28 03:56:35;;;;;;;3.45;3.10;;;;;;;28.23;45.63;101238.00;1779810;79;21064;-47
2021/05/28 03:59:02;;;;;;;3.40;3.10;;;;;;;28.56;44.66;101240.41;1779269;79;21147;-48
2021/05/28 04:01:28;;;;;;;4.72;3.12;;;;;;;28.70;44.17;101237.34;1783242;80;21052;-46
2021/05/28 04:03:56;;;;;;;5.03;3.80;;;;;;;28.74;43.73;101235.22;1777836;80;21186;-50
2021/05/28 04:06:23;;;;;;;4.70;3.27;;;;;;;28.62;43.64;101237.18;1767557;79;21056;-46
2021/05/28 04:08:49;;;;;;;4.50;3.47;;;;;;;28.44;43.92;101238.77;1778664;80;21060;-51
2021/05/28 04:11:17;;;;;;;4.75;3.50;;;;;;;28.19;44.28;101239.25;1771077;79;21060;-47
2021/05/28 04:13:44;;;;;;;4.08;3.65;;;;;;;27.92;44.72;101238.94;1779010;79;21555;-52
2021/05/28 04:16:12;;;;;;;6.08;4.00;;;;;;;27.64;45.23;101239.59;1775106;79;21168;-48
2021/05/28 04:18:40;;;;;;;4.30;3.90;;;;;;;27.37;45.69;101230.75;1770211;79;21088;-48
2021/05/28 04:21:08;;;;;;;5.15;3.80;;;;;;;27.12;45.94;101238.59;1778411;79;21052;-47
2021/05/28 04:23:35;;;;;;;4.65;4.22;;;;;;;26.87;46.04;101236.28;1762928;80;21024;-47
2021/05/28 04:26:02;;;;;;;5.50;4.95;;;;;;;26.61;46.33;101238.35;1777772;79;21562;-47
2021/05/28 04:28:29;;;;;;;7.58;5.00;;;;;;;26.16;46.91;101235.84;1766652;80;21048;-46
2021/05/28 04:30:57;;;;;;;7.55;5.80;;;;;;;26.16;46.91;101235.84;1779756;79;21041;-48
2021/05/28 04:33:24;;;;;;;7.08;5.35;;;;;;;25.97;47.29;101236.40;1772815;79;21032;-46
2021/05/28 04:35:51;;;;;;;6.10;5.35;;;;;;;25.80;47.65;101240.37;1768296;79;21044;-48
2021/05/28 04:38:18;;;;;;;5.62;5.08;;;;;;;25.64;48.04;101230.53;1769734;80;21052;-47
2021/05/28 04:40:45;;;;;;;9.20;5.80;;;;;;;25.52;48.46;101232.81;1778776;79;21068;-47
2021/05/28 04:43:12;;;;;;;10.53;5.97;;;;;;;25.42;48.76;101230.95;1778183;79;21639;-46
2021/05/28 04:45:40;;;;;;;6.97;5.70;;;;;;;25.35;48.96;101231.04;1774770;80;21075;-46
2021/05/28 04:48:07;;;;;;;9.53;5.72;;;;;;;25.31;49.24;101226.41;1765892;80;21080;-47
2021/05/28 04:50:36;;;;;;;11.12;6.47;;;;;;;25.28;49.45;101229.31;1729641;81;21112;-46
2021/05/28 04:53:04;;;;;;;7.60;5.80;;;;;;;25.26;49.64;101228.58;1773548;79;21028;-46
2021/05/28 04:55:31;;;;;;;7.03;5.97;;;;;;;25.27;49.65;101231.59;1774541;80;21040;-48
2021/05/28 04:57:59;;;;;;;8.03;5.80;;;;;;;25.26;49.68;101229.91;1779375;79;21615;-46
2021/05/28 05:00:27;;;;;;;14.23;6.55;;;;;;;25.25;49.84;101229.53;1771095;79;21096;-48
2021/05/28 05:02:53;;;;;;;7.40;6.30;;;;;;;25.24;49.87;101222.52;1775693;79;21005;-47
2021/05/28 05:05:20;;;;;;;8.60;5.85;;;;;;;25.27;49.97;101224.94;1773849;79;21049;-51
2021/05/28 05:07:47;;;;;;;7.40;5.78;;;;;;;25.38;49.97;101227.65;1770372;79;21169;-49
2021/05/28 05:10:14;;;;;;;6.75;5.28;;;;;;;25.52;49.61;101227.95;1771405;80;21551;-46
2021/05/28 05:12:41;;;;;;;6.30;5.67;;;;;;;25.67;49.55;101222.31;1718327;82;21021;-51
2021/05/28 05:15:10;;;;;;;8.13;5.87;;;;;;;25.82;49.18;101221.11;1760816;80;21040;-47
2021/05/28 05:17:38;;;;;;;7.53;5.67;;;;;;;26.21;48.74;101223.00;1770091;79;21565;-52
2021/05/28 05:20:06;;;;;;;7.25;5.47;;;;;;;26.38;48.50;101226.48;1760858;80;21060;-47
2021/05/28 05:22:35;;;;;;;8.40;6.55;;;;;;;26.38;48.50;101226.48;1765611;79;21555;-48
2021/05/28 05:25:03;;;;;;;6.87;5.25;;;;;;;26.53;47.92;101214.11;1764319;79;21146;-49
2021/05/28 05:27:30;;;;;;;10.75;7.22;;;;;;;26.71;47.66;101219.75;1770144;79;21575;-47
2021/05/28 05:29:56;;;;;;;9.10;5.78;;;;;;;26.84;47.26;101220.49;1781881;79;21039;-48
2021/05/28 05:32:23;;;;;;;6.30;5.30;;;;;;;26.99;46.98;101221.91;1778161;80;21106;-51
2021/05/28 05:34:50;;;;;;;7.30;5.00;;;;;;;27.14;46.50;101215.27;1775199;80;21063;-47
2021/05/28 05:37:17;;;;;;;5.20;4.08;;;;;;;27.28;46.17;101213.66;1780966;79;21084;-48
2021/05/28 05:39:44;;;;;;;6.10;5.10;;;;;;;27.48;45.61;101207.13;1773132;80;21047;-46
2021/05/28 05:42:10;;;;;;;8.75;4.80;;;;;;;27.65;45.08;101211.89;1791845;79;21047;-47
2021/05/28 05:44:37;;;;;;;9.35;5.08;;;;;;;27.81;45.34;101214.94;1771538;79;21602;-48
2021/05/28 05:47:04;;;;;;;7.35;4.22;;;;;;;28.00;44.49;101212.41;1723581;82;21076;-49
2021/05/28 05:49:31;;;;;;;4.62;3.70;;;;;;;28.21;43.85;101208.34;1716267;82;21045;-49
2021/05/28 05:51:58;;;;;;;7.15;4.70;;;;;;;28.42;43.05;101205.92;1714928;83;21041;-47
2021/05/28 05:54:26;;;;;;;5.83;4.58;;;;;;;28.56;43.34;101199.39;1710524;82;21549;-47
2021/05/28 05:56:52;;;;;;;8.33;5.40;;;;;;;28.66;43.76;101203.78;1709228;83;21108;-46
2021/05/28 05:59:21;;;;;;;6.30;5.10;;;;;;;28.76;43.67;101193.93;1712012;83;21085;-50
2021/05/28 06:01:49;;;;;;;8.45;4.30;;;;;;;28.80;43.73;101199.36;1719011;82;21104;-47
2021/05/28 06:04:15;;;;;;;6.03;4.58;;;;;;;28.82;43.65;101188.02;1736866;81;21127;-49
2021/05/28 06:06:42;;;;;;;6.28;4.60;;;;;;;28.87;43.52;101189.77;1737656;81;21034;-46
2021/05/28 06:09:09;;;;;;;4.90;4.03;;;;;;;29.01;43.03;101194.36;1762160;80;21039;-46
2021/05/28 06:11:38;;;;;;;8.25;4.53;;;;;;;29.14;42.32;101185.55;1782337;80;21020;-49
2021/05/28 06:14:04;;;;;;;5.17;4.65;;;;;;;29.32;42.12;101181.20;1765172;79;21044;-48
2021/05/28 06:16:31;;;;;;;4.67;3.95;;;;;;;29.55;42.27;101178.03;1770841;79;21036;-50
2021/05/28 06:18:58;;;;;;;5.12;3.80;;;;;;;29.77;42.52;101180.91;1759791;79;21104;-47
2021/05/28 06:21:25;;;;;;;6.58;4.25;;;;;;;29.96;42.05;101176.83;1765255;80;21071;-47
2021/05/28 06:23:52;;;;;;;5.30;3.90;;;;;;;30.07;41.60;101177.96;1770112;80;21134;-48
2021/05/28 06:26:19;;;;;;;6.85;4.05;;;;;;;30.11;41.20;101178.01;1767808;80;21119;-46
2021/05/28 06:28:46;;;;;;;5.28;4.25;;;;;;;30.03;41.14;101175.71;1781588;79;21016;-48
2021/05/28 06:31:12;;;;;;;6.20;3.98;;;;;;;29.92;41.20;101175.44;1769339;79;21602;-46
2021/05/28 06:33:39;;;;;;;4.30;3.90;;;;;;;29.75;41.48;101172.17;1775962;79;21043;-50
2021/05/28 06:36:06;;;;;;;9.60;4.37;;;;;;;29.58;42.02;101172.87;1769447;79;21575;-51
2021/05/28 06:38:33;;;;;;;4.08;3.67;;;;;;;29.43;42.61;101164.97;1774381;79;21045;-51
2021/05/28 06:41:00;;;;;;;5.45;3.95;;;;;;;29.29;43.13;101166.72;1772104;80;21075;-46
2021/05/28 06:43:27;;;;;;;6.45;4.25;;;;;;;29.13;43.11;101168.63;1768017;80;21044;-50
2021/05/28 06:45:54;;;;;;;4.70;4.30;;;;;;;28.98;43.24;101166.87;1777259;79;21052;-47
2021/05/28 06:48:22;;;;;;;7.20;4.65;;;;;;;28.85;43.89;101168.97;1773835;79;21072;-49
2021/05/28 06:50:49;;;;;;;5.70;4.72;;;;;;;28.73;44.39;101166.07;1766342;79;21037;-47
2021/05/28 06:53:17;;;;;;;7.47;4.90;;;;;;;28.64;44.63;101170.95;1769690;80;21031;-48
2021/05/28 06:55:44;;;;;;;8.88;6.75;;;;;;;28.54;44.86;101174.04;1776849;79;21052;-48
2021/05/28 06:58:11;;;;;;;5.80;4.50;;;;;;;28.44;45.06;101170.50;1773800;80;21032;-48
2021/05/28 07:00:38;;;;;;;5.12;4.15;;;;;;;28.37;45.06;101169.37;1768214;79;21559;-47
2021/05/28 07:03:05;;;;;;;7.65;4.37;;;;;;;28.31;44.91;101165.91;1765291;80;21061;-50
2021/05/28 07:05:32;;;;;;;8.70;4.37;;;;;;;28.29;44.99;101171.89;1774564;80;21103;-47
2021/05/28 07:08:00;;;;;;;5.50;4.35;;;;;;;28.31;45.53;101164.56;1774482;79;21040;-49
2021/05/28 07:10:28;;;;;;;5.28;4.12;;;;;;;28.37;45.41;101157.81;1759340;80;21047;-47
2021/05/28 07:12:55;;;;;;;6.03;4.30;;;;;;;28.41;45.10;101158.74;1775782;80;21039;-50
2021/05/28 07:15:22;;;;;;;5.25;4.12;;;;;;;28.43;44.84;101154.09;1773626;79;21009;-47
2021/05/28 07:17:48;;;;;;;9.33;3.95;;;;;;;28.46;45.00;101157.00;1774454;80;21052;-51
2021/05/28 07:20:15;;;;;;;5.40;4.60;;;;;;;28.50;45.28;101156.56;1775821;80;21035;-47
2021/05/28 07:22:43;;;;;;;5.45;4.12;;;;;;;28.57;44.96;101153.73;1729919;80;21036;-52
2021/05/28 07:25:12;;;;;;;6.00;4.05;;;;;;;28.64;44.83;101146.84;1746468;80;21025;-48
2021/05/28 07:27:38;;;;;;;5.47;4.35;;;;;;;28.67;44.19;101143.88;1722675;81;21630;-46
2021/05/28 07:30:08;;;;;;;4.40;3.95;;;;;;;28.64;44.28;101137.95;1728087;82;21069;-48
2021/05/28 07:32:39;;;;;;;4.67;4.17;;;;;;;28.60;44.18;101141.41;1716410;80;21614;-48
2021/05/28 07:35:08;;;;;;;7.15;4.60;;;;;;;28.52;43.94;101145.22;1748918;80;21066;-48
2021/05/28 07:37:35;;;;;;;7.60;5.65;;;;;;;28.45;44.29;101144.09;1724234;82;21052;-48
2021/05/28 07:40:05;;;;;;;4.97;4.15;;;;;;;28.38;44.78;101145.63;1726223;82;21127;-47
2021/05/28 07:42:32;;;;;;;7.10;4.60;;;;;;;28.31;45.07;101139.14;1746954;81;21036;-49
2021/05/28 07:44:59;;;;;;;7.17;4.03;;;;;;;28.27;45.25;101146.24;1730465;81;21048;-49
2021/05/28 07:47:26;;;;;;;7.87;5.28;;;;;;;28.23;45.21;101136.31;1733264;82;21103;-48
2021/05/28 07:49:53;;;;;;;4.80;4.30;;;;;;;28.22;44.96;101137.28;1744830;80;21061;-49
2021/05/28 07:52:20;;;;;;;10.82;4.67;;;;;;;28.23;44.97;101127.42;1759513;81;21056;-49
2021/05/28 07:54:49;;;;;;;58.73;10.85;;;;;;;28.26;44.88;101132.48;1714164;82;21032;-48
2021/05/28 07:57:16;;;;;;;65.17;9.95;;;;;;;28.30;44.86;101131.23;1731279;80;21082;-48
2021/05/28 07:59:43;;;;;;;51.77;10.15;;;;;;;28.31;44.64;101133.80;1688788;83;21630;-47
2021/05/28 08:02:10;;;;;;;139.50;16.82;;;;;;;28.27;44.62;101127.02;1772470;79;21032;-48
2021/05/28 08:04:36;;;;;;;84.83;12.88;;;;;;;28.21;44.49;101130.25;1776599;79;21179;-49
2021/05/28 08:07:03;;;;;;;133.32;18.15;;;;;;;28.13;44.56;101128.23;1779272;79;21051;-48
2021/05/28 08:09:30;;;;;;;11.48;5.37;;;;;;;28.11;44.79;101125.33;1778321;79;21614;-48
2021/05/28 08:11:57;;;;;;;194.35;23.92;;;;;;;28.13;44.47;101123.41;1773255;79;21122;-46
2021/05/28 08:14:24;;;;;;;71.72;9.43;;;;;;;28.14;45.06;101119.73;1777324;79;21048;-47
2021/05/28 08:16:51;;;;;;;98.97;14.68;;;;;;;28.18;44.86;101117.12;1783017;79;21599;-47
2021/05/28 08:19:19;;;;;;;19.70;5.97;;;;;;;28.23;44.58;101122.08;1770996;79;21072;-46
2021/05/28 08:21:45;;;;;;;7.25;4.70;;;;;;;28.23;44.44;101118.91;1783245;79;21131;-48
2021/05/28 08:24:13;;;;;;;5.97;3.80;;;;;;;28.27;45.00;101118.99;1777535;79;21040;-46
2021/05/28 08:26:40;;;;;;;7.95;3.95;;;;;;;28.31;44.85;101114.20;1765203;79;21598;-48
2021/05/28 08:29:09;;;;;;;4.40;3.80;;;;;;;28.32;44.64;101106.03;1781803;79;21077;-50
2021/05/28 08:31:35;;;;;;;5.85;3.75;;;;;;;28.32;44.32;101100.67;1781706;79;21023;-47
2021/05/28 08:34:03;;;;;;;8.43;3.98;;;;;;;28.32;44.93;101102.02;1786136;79;21060;-46
2021/05/28 08:36:30;;;;;;;4.35;3.95;;;;;;;28.34;44.59;101101.37;1780628;79;21602;-48
2021/05/28 08:38:57;;;;;;;5.53;3.80;;;;;;;28.35;44.73;101103.09;1779082;79;21028;-47
2021/05/28 08:41:24;;;;;;;48.55;9.35;;;;;;;28.32;44.90;101092.64;1776317;79;21539;-47
2021/05/28 08:43:50;;;;;;;65.55;10.63;;;;;;;28.31;45.17;101096.33;1777990;80;21035;-47
2021/05/28 08:46:17;;;;;;;121.40;15.23;;;;;;;28.32;45.46;101091.80;1772472;80;21084;-46
2021/05/28 08:48:45;;;;;;;7.67;4.37;;;;;;;28.34;45.38;101093.35;1768542;80;21088;-50
2021/05/28 08:51:12;;;;;;;10.63;4.05;;;;;;;28.37;45.13;101093.09;1765667;79;21063;-51
2021/05/28 08:53:39;;;;;;;4.97;3.75;;;;;;;28.41;44.92;101093.16;1781305;79;21571;-49
2021/05/28 08:56:10;;;;;;;3.92;3.50;;;;;;;28.44;44.91;101097.40;1777353;79;21040;-49
2021/05/28 08:58:37;;;;;;;6.05;3.50;;;;;;;28.45;44.42;101092.38;1776557;80;21586;-49
2021/05/28 09:01:04;;;;;;;4.65;3.90;;;;;;;28.46;44.28;101097.59;1764702;80;21051;-47
2021/05/28 09:03:34;;;;;;;6.83;3.45;;;;;;;28.49;43.98;101097.80;1770359;80;21059;-48
2021/05/28 09:06:07;;;;;;;6.10;4.12;;;;;;;28.53;43.72;101093.86;1784289;79;21072;-49
2021/05/28 09:08:35;;;;;;;5.90;3.75;;;;;;;28.56;43.95;101093.63;1779121;79;21040;-48
2021/05/28 09:11:18;;;;;;;4.60;3.60;;;;;;;28.56;43.83;101087.80;1786802;79;21053;-47
2021/05/28 09:13:51;;;;;;;4.78;3.20;;;;;;;28.59;43.58;101082.62;1773503;79;21591;-53
2021/05/28 09:18:59;;;;;;;6.15;3.70;;;;;;;28.65;42.75;101077.55;1686727;83;21114;-48
2021/05/28 09:21:35;;;;;;;4.28;3.20;;;;;;;28.70;42.49;101073.98;1687659;83;21131;-50
2021/05/28 09:24:08;;;;;;;5.28;3.58;;;;;;;28.76;41.91;101069.39;1677106;83;21086;-47
2021/05/28 09:26:36;;;;;;;3.58;3.27;;;;;;;28.79;41.56;101069.09;1675303;83;21061;-51
2021/05/28 09:29:05;;;;;;;6.35;3.37;;;;;;;28.82;41.10;101064.80;1679582;83;21177;-48
2021/05/28 09:31:33;;;;;;;6.42;3.60;;;;;;;28.85;40.58;101060.48;1692350;83;23308;-52
2021/05/28 09:34:00;;;;;;;9.78;3.60;;;;;;;28.89;41.53;101059.72;1684512;83;21090;-47
2021/05/28 09:36:32;;;;;;;4.67;3.52;;;;;;;28.91;40.77;101056.41;1683206;83;21180;-47
2021/05/28 09:39:14;;;;;;;6.03;3.58;;;;;;;28.95;40.94;101054.61;1627015;87;21123;-47
2021/05/28 09:41:47;;;;;;;3.50;2.90;;;;;;;29.02;40.48;101059.42;1637543;86;21068;-49
2021/05/28 09:44:30;;;;;;;4.92;3.52;;;;;;;29.06;39.43;101052.78;1686443;83;21115;-48
2021/05/28 09:47:15;;;;;;;3.55;3.00;;;;;;;29.10;40.16;101054.19;1685512;83;21101;-52
2021/05/28 09:49:49;;;;;;;4.50;2.67;;;;;;;29.15;39.92;101054.61;1685876;83;21064;-48
2021/05/28 09:52:27;;;;;;;4.75;2.72;;;;;;;29.18;38.46;101049.80;1684352;83;21191;-47
2021/05/28 09:55:10;;;;;;;6.28;3.37;;;;;;;29.23;38.31;101052.05;1694160;83;21155;-46
2021/05/28 09:57:48;;;;;;;5.30;3.27;;;;;;;29.24;37.82;101049.73;1683892;83;21117;-47
2021/05/28 10:00:35;;;;;;;9.58;3.12;;;;;;;29.26;37.85;101045.07;1678338;83;21066;-49
2021/05/28 10:03:23;;;;;;;3.47;3.17;;;;;;;29.30;38.83;101046.47;1650879;86;21071;-47
2021/05/28 10:05:58;;;;;;;3.70;2.95;;;;;;;29.35;38.22;101040.16;1654012;86;21127;-50
2021/05/28 10:08:27;;;;;;;2.37;2.17;;;;;;;29.43;37.28;101037.61;1651155;86;21123;-49
2021/05/28 10:13:26;;;;;;;2.85;2.40;;;;;;;29.61;35.18;101037.99;1627571;87;21082;-48
2021/05/28 10:15:55;;;;;;;3.22;2.12;;;;;;;29.71;35.02;101039.30;1667596;85;21065;-50
2021/05/28 10:18:22;;;;;;;2.70;2.35;;;;;;;29.81;34.31;101041.47;1689478;84;21051;-49
2021/05/28 10:20:52;;;;;;;6.00;2.40;;;;;;;29.87;34.59;101040.87;1654082;86;21070;-48
2021/05/28 10:23:20;;;;;;;2.83;2.40;;;;;;;29.90;34.75;101041.92;1645793;86;21677;-47
2021/05/28 10:25:47;;;;;;;4.12;2.80;;;;;;;29.93;34.90;101038.92;1645435;86;21166;-48
2021/05/28 10:28:22;;;;;;;5.80;2.65;;;;;;;29.96;34.83;101033.76;1639742;86;21166;-50
2021/05/28 10:30:51;;;;;;;2.70;2.47;;;;;;;29.96;35.34;101033.27;1654280;86;21114;-48
2021/05/28 10:33:30;;;;;;;2.67;2.47;;;;;;;30.00;35.51;101037.34;1622327;86;21080;-47
2021/05/28 10:36:05;;;;;;;3.83;2.50;;;;;;;30.04;35.64;101032.50;1511539;91;21093;-50
2021/05/28 10:38:42;;;;;;;2.83;2.60;;;;;;;30.06;35.59;101030.02;1535817;91;21111;-49
2021/05/28 10:41:18;;;;;;;6.70;2.50;;;;;;;30.11;36.06;101025.55;1547632;91;21102;-48
2021/05/28 10:43:54;;;;;;;4.58;2.90;;;;;;;30.16;36.57;101029.45;1546280;91;21127;-48
2021/05/28 10:46:21;;;;;;;2.87;2.40;;;;;;;30.23;37.20;101025.14;1551052;91;21285;-50
2021/05/28 10:49:06;;;;;;;2.72;2.40;;;;;;;30.29;37.50;101029.97;1550754;91;21173;-49
2021/05/28 10:51:38;;;;;;;4.05;2.27;;;;;;;30.33;37.68;101025.12;1528817;91;22416;-49
2021/05/28 10:54:19;;;;;;;3.85;2.55;;;;;;;30.35;37.70;101026.66;1557659;91;21099;-49
2021/05/28 10:56:47;;;;;;;6.05;2.50;;;;;;;30.37;37.95;101021.98;1556617;91;21142;-50
2021/05/28 10:59:17;;;;;;;3.52;2.47;;;;;;;30.39;38.36;101025.36;1562839;88;21101;-53
2021/05/28 11:01:53;;;;;;;3.27;2.90;;;;;;;30.40;38.27;101024.83;1577296;89;21131;-54
2021/05/28 11:04:26;;;;;;;2.80;2.58;;;;;;;30.33;38.62;101021.09;1576539;89;21202;-49
2021/05/28 11:07:04;;;;;;;3.58;2.90;;;;;;;30.29;39.23;101019.22;1590038;89;21123;-49
2021/05/28 11:09:50;;;;;;;3.08;2.77;;;;;;;30.27;39.03;101013.13;1583542;89;21090;-52
2021/05/28 11:12:38;;;;;;;4.37;3.15;;;;;;;30.20;39.37;101011.19;1577341;89;21162;-50
2021/05/28 11:15:14;;;;;;;4.33;3.05;;;;;;;30.12;39.56;101005.75;1578679;89;21090;-49
2021/05/28 11:18:03;;;;;;;3.30;3.00;;;;;;;30.01;40.10;101010.84;1580575;89;21086;-52
2021/05/28 11:20:35;;;;;;;4.97;3.40;;;;;;;29.95;40.33;101007.41;1512388;93;21159;-54
2021/05/28 11:23:23;;;;;;;4.12;3.37;;;;;;;29.91;40.66;101008.72;1518966;93;21141;-49
2021/05/28 11:25:53;;;;;;;4.72;3.15;;;;;;;29.88;40.51;101008.19;1510832;93;21108;-53
2021/05/28 11:28:22;;;;;;;3.30;3.00;;;;;;;29.87;40.75;101010.50;1523726;93;21137;-51
2021/05/28 11:30:59;;;;;;;5.92;3.40;;;;;;;29.85;40.27;101010.66;1521971;92;21126;-50
2021/05/28 11:33:38;;;;;;;4.10;3.52;;;;;;;29.85;40.26;101010.66;1549086;89;21094;-49
2021/05/28 11:36:30;;;;;;;4.60;3.08;;;;;;;29.84;40.50;101007.65;1595774;89;21119;-47
2021/05/28 11:39:10;;;;;;;6.15;3.10;;;;;;;29.82;40.68;101009.61;1594660;89;21134;-47